sensor_id;sensor_type;location;lat;lon;timestamp;pressure;altitude;pressure_sealevel;temperature;humidity
22755;BME280;11544;42.020;23.094;2023-10-09T00:02:27;97583.78;;;22.14;55.03
22755;BME280;11544;42.020;23.094;2023-10-09T00:04:56;97585.56;;;22.02;55.48
22755;BME280;11544;42.020;23.094;2023-10-09T00:07:23;97579.91;;;22.18;55.99
22755;BME280;11544;42.020;23.094;2023-10-09T00:09:57;97587.88;;;22.07;57.63
22755;BME280;11544;42.020;23.094;2023-10-09T00:12:24;97585.19;;;22.42;61.55
22755;BME280;11544;42.020;23.094;2023-10-09T00:14:52;97590.16;;;22.11;60.33
22755;BME280;11544;42.020;23.094;2023-10-09T00:17:23;97588.66;;;22.31;59.95
22755;BME280;11544;42.020;23.094;2023-10-09T00:19:51;97597.50;;;22.08;58.06
22755;BME280;11544;42.020;23.094;2023-10-09T00:22:19;97591.19;;;21.86;58.24
22755;BME280;11544;42.020;23.094;2023-10-09T00:24:53;97600.25;;;22.06;57.71
22755;BME280;11544;42.020;23.094;2023-10-09T00:27:43;97596.38;;;21.88;58.02
22755;BME280;11544;42.020;23.094;2023-10-09T00:30:15;97592.75;;;21.89;61.41
22755;BME280;11544;42.020;23.094;2023-10-09T00:32:46;97598.81;;;21.67;58.09
22755;BME280;11544;42.020;23.094;2023-10-09T00:35:19;97601.13;;;21.71;57.43
22755;BME280;11544;42.020;23.094;2023-10-09T00:38:05;97604.41;;;21.51;59.52
22755;BME280;11544;42.020;23.094;2023-10-09T00:40:49;97596.75;;;21.59;58.25
22755;BME280;11544;42.020;23.094;2023-10-09T00:43:28;97614.75;;;21.43;59.03
22755;BME280;11544;42.020;23.094;2023-10-09T00:45:58;97610.50;;;20.90;60.84
22755;BME280;11544;42.020;23.094;2023-10-09T00:48:46;97609.94;;;21.35;59.89
22755;BME280;11544;42.020;23.094;2023-10-09T00:51:16;97611.78;;;20.85;62.83
22755;BME280;11544;42.020;23.094;2023-10-09T00:53:53;97616.16;;;21.23;60.97
22755;BME280;11544;42.020;23.094;2023-10-09T00:56:22;97611.97;;;20.94;62.38
22755;BME280;11544;42.020;23.094;2023-10-09T00:58:53;97607.09;;;21.01;62.35
22755;BME280;11544;42.020;23.094;2023-10-09T01:01:33;97618.28;;;21.18;65.03
22755;BME280;11544;42.020;23.094;2023-10-09T01:04:07;97617.63;;;20.77;64.18
22755;BME280;11544;42.020;23.094;2023-10-09T01:06:42;97622.38;;;20.98;62.89
22755;BME280;11544;42.020;23.094;2023-10-09T01:09:14;97622.56;;;20.94;62.11
22755;BME280;11544;42.020;23.094;2023-10-09T01:11:44;97632.34;;;20.94;61.53
22755;BME280;11544;42.020;23.094;2023-10-09T01:14:25;97634.75;;;20.97;60.53
22755;BME280;11544;42.020;23.094;2023-10-09T01:16:52;97636.19;;;20.77;62.01
22755;BME280;11544;42.020;23.094;2023-10-09T01:19:21;97631.50;;;20.81;62.41
22755;BME280;11544;42.020;23.094;2023-10-09T01:21:51;97640.84;;;20.61;62.94
22755;BME280;11544;42.020;23.094;2023-10-09T01:24:19;97638.69;;;20.91;62.13
22755;BME280;11544;42.020;23.094;2023-10-09T01:26:47;97626.63;;;20.49;64.69
22755;BME280;11544;42.020;23.094;2023-10-09T01:29:18;97633.00;;;20.59;64.15
22755;BME280;11544;42.020;23.094;2023-10-09T01:31:47;97643.34;;;20.37;65.35
22755;BME280;11544;42.020;23.094;2023-10-09T01:34:29;97645.81;;;20.65;63.56
22755;BME280;11544;42.020;23.094;2023-10-09T01:37:12;97647.38;;;20.81;62.52
22755;BME280;11544;42.020;23.094;2023-10-09T01:39:51;97647.28;;;20.82;62.64
22755;BME280;11544;42.020;23.094;2023-10-09T01:42:19;97649.00;;;20.70;63.32
22755;BME280;11544;42.020;23.094;2023-10-09T01:45:02;97649.63;;;20.48;64.28
22755;BME280;11544;42.020;23.094;2023-10-09T01:47:50;97645.44;;;20.19;65.92
22755;BME280;11544;42.020;23.094;2023-10-09T01:50:21;97645.78;;;20.27;64.96
22755;BME280;11544;42.020;23.094;2023-10-09T01:52:51;97653.41;;;20.44;65.70
22755;BME280;11544;42.020;23.094;2023-10-09T01:55:18;97653.31;;;20.46;67.26
22755;BME280;11544;42.020;23.094;2023-10-09T01:57:56;97651.47;;;20.34;66.79
22755;BME280;11544;42.020;23.094;2023-10-09T02:00:29;97656.47;;;20.38;66.97
22755;BME280;11544;42.020;23.094;2023-10-09T02:02:56;97667.00;;;20.00;66.55
22755;BME280;11544;42.020;23.094;2023-10-09T02:05:24;97657.84;;;19.91;66.59
22755;BME280;11544;42.020;23.094;2023-10-09T02:07:52;97664.47;;;19.71;67.99
22755;BME280;11544;42.020;23.094;2023-10-09T02:10:23;97652.72;;;20.02;66.49
22755;BME280;11544;42.020;23.094;2023-10-09T02:15:26;97663.72;;;19.69;68.74
22755;BME280;11544;42.020;23.094;2023-10-09T02:18:19;97669.97;;;19.12;71.92
22755;BME280;11544;42.020;23.094;2023-10-09T02:20:49;97658.34;;;18.72;74.20
22755;BME280;11544;42.020;23.094;2023-10-09T02:23:28;97658.06;;;18.62;74.38
22755;BME280;11544;42.020;23.094;2023-10-09T02:26:18;97656.53;;;19.30;72.11
22755;BME280;11544;42.020;23.094;2023-10-09T02:28:50;97663.06;;;19.24;70.88
22755;BME280;11544;42.020;23.094;2023-10-09T02:31:27;97667.09;;;19.30;70.64
22755;BME280;11544;42.020;23.094;2023-10-09T02:34:03;97677.41;;;19.06;70.45
22755;BME280;11544;42.020;23.094;2023-10-09T02:36:32;97684.59;;;19.03;71.88
22755;BME280;11544;42.020;23.094;2023-10-09T02:39:01;97672.69;;;19.11;71.43
22755;BME280;11544;42.020;23.094;2023-10-09T02:41:32;97661.19;;;18.69;73.59
22755;BME280;11544;42.020;23.094;2023-10-09T02:44:01;97659.47;;;18.68;73.32
22755;BME280;11544;42.020;23.094;2023-10-09T02:46:37;97669.38;;;18.64;72.76
22755;BME280;11544;42.020;23.094;2023-10-09T02:49:07;97685.50;;;18.45;74.18
22755;BME280;11544;42.020;23.094;2023-10-09T02:51:36;97690.91;;;18.87;73.55
22755;BME280;11544;42.020;23.094;2023-10-09T02:54:08;97688.19;;;18.88;73.78
22755;BME280;11544;42.020;23.094;2023-10-09T02:56:46;97691.31;;;18.80;72.46
22755;BME280;11544;42.020;23.094;2023-10-09T02:59:14;97692.03;;;18.82;71.66
22755;BME280;11544;42.020;23.094;2023-10-09T03:01:41;97698.25;;;18.67;71.63
22755;BME280;11544;42.020;23.094;2023-10-09T03:04:08;97698.50;;;18.62;72.72
22755;BME280;11544;42.020;23.094;2023-10-09T03:06:38;97704.81;;;19.04;70.20
22755;BME280;11544;42.020;23.094;2023-10-09T03:09:12;97691.88;;;19.00;69.50
22755;BME280;11544;42.020;23.094;2023-10-09T03:11:48;97697.63;;;19.21;68.75
22755;BME280;11544;42.020;23.094;2023-10-09T03:14:21;97710.06;;;19.19;69.56
22755;BME280;11544;42.020;23.094;2023-10-09T03:16:52;97718.47;;;19.25;68.67
22755;BME280;11544;42.020;23.094;2023-10-09T03:19:19;97724.78;;;18.80;69.97
22755;BME280;11544;42.020;23.094;2023-10-09T03:21:46;97719.69;;;18.77;70.43
22755;BME280;11544;42.020;23.094;2023-10-09T03:24:13;97713.16;;;19.81;72.15
22755;BME280;11544;42.020;23.094;2023-10-09T03:26:40;97719.53;;;19.23;68.59
22755;BME280;11544;42.020;23.094;2023-10-09T03:29:07;97722.88;;;19.25;68.20
22755;BME280;11544;42.020;23.094;2023-10-09T03:31:37;97727.22;;;19.40;67.62
22755;BME280;11544;42.020;23.094;2023-10-09T03:34:05;97744.31;;;19.20;68.58
22755;BME280;11544;42.020;23.094;2023-10-09T03:36:32;97750.75;;;18.88;70.57
22755;BME280;11544;42.020;23.094;2023-10-09T03:39:05;97754.88;;;18.77;71.07
22755;BME280;11544;42.020;23.094;2023-10-09T03:41:55;97741.88;;;18.89;70.20
22755;BME280;11544;42.020;23.094;2023-10-09T03:44:25;97748.00;;;18.89;71.48
22755;BME280;11544;42.020;23.094;2023-10-09T03:46:55;97745.09;;;18.63;71.31
22755;BME280;11544;42.020;23.094;2023-10-09T03:49:22;97756.88;;;18.88;69.54
22755;BME280;11544;42.020;23.094;2023-10-09T03:51:52;97758.69;;;19.02;71.56
22755;BME280;11544;42.020;23.094;2023-10-09T03:54:19;97766.03;;;18.52;71.28
22755;BME280;11544;42.020;23.094;2023-10-09T03:56:51;97776.16;;;18.44;68.41
22755;BME280;11544;42.020;23.094;2023-10-09T03:59:18;97776.56;;;18.82;65.39
22755;BME280;11544;42.020;23.094;2023-10-09T04:01:48;97780.41;;;18.47;65.22
22755;BME280;11544;42.020;23.094;2023-10-09T04:04:18;97768.44;;;18.41;64.99
22755;BME280;11544;42.020;23.094;2023-10-09T04:06:50;97773.28;;;18.63;62.99
22755;BME280;11544;42.020;23.094;2023-10-09T04:09:20;97776.88;;;18.62;61.52
22755;BME280;11544;42.020;23.094;2023-10-09T04:11:51;97786.41;;;18.80;61.27
22755;BME280;11544;42.020;23.094;2023-10-09T04:14:40;97777.19;;;18.72;60.96
22755;BME280;11544;42.020;23.094;2023-10-09T04:17:24;97773.66;;;18.57;61.59
22755;BME280;11544;42.020;23.094;2023-10-09T04:19:51;97774.59;;;18.86;59.58
22755;BME280;11544;42.020;23.094;2023-10-09T04:22:40;97785.94;;;18.88;59.12
22755;BME280;11544;42.020;23.094;2023-10-09T04:25:20;97783.53;;;18.23;60.08
22755;BME280;11544;42.020;23.094;2023-10-09T04:27:56;97783.19;;;18.29;59.96
22755;BME280;11544;42.020;23.094;2023-10-09T04:30:39;97789.94;;;17.87;60.64
22755;BME280;11544;42.020;23.094;2023-10-09T04:33:22;97785.50;;;18.19;59.70
22755;BME280;11544;42.020;23.094;2023-10-09T04:36:10;97794.59;;;18.14;59.02
22755;BME280;11544;42.020;23.094;2023-10-09T04:38:51;97790.94;;;18.16;59.00
22755;BME280;11544;42.020;23.094;2023-10-09T04:41:31;97782.88;;;17.72;59.92
22755;BME280;11544;42.020;23.094;2023-10-09T04:44:21;97780.25;;;17.88;60.34
22755;BME280;11544;42.020;23.094;2023-10-09T04:47:02;97785.41;;;17.73;60.00
22755;BME280;11544;42.020;23.094;2023-10-09T04:49:40;97779.16;;;17.92;58.72
22755;BME280;11544;42.020;23.094;2023-10-09T04:52:28;97773.16;;;18.04;59.19
22755;BME280;11544;42.020;23.094;2023-10-09T04:54:58;97774.09;;;18.19;58.36
22755;BME280;11544;42.020;23.094;2023-10-09T04:57:42;97768.88;;;18.33;56.45
22755;BME280;11544;42.020;23.094;2023-10-09T05:00:13;97779.91;;;18.10;56.59
22755;BME280;11544;42.020;23.094;2023-10-09T05:03:10;97775.03;;;18.02;56.41
22755;BME280;11544;42.020;23.094;2023-10-09T05:05:39;97786.69;;;18.14;56.31
22755;BME280;11544;42.020;23.094;2023-10-09T05:08:12;97792.53;;;18.35;55.94
22755;BME280;11544;42.020;23.094;2023-10-09T05:13:36;97798.84;;;18.32;59.37
22755;BME280;11544;42.020;23.094;2023-10-09T05:18:40;97802.41;;;18.77;62.81
22755;BME280;11544;42.020;23.094;2023-10-09T05:21:08;97815.28;;;18.22;58.06
22755;BME280;11544;42.020;23.094;2023-10-09T05:23:35;97816.06;;;18.08;55.57
22755;BME280;11544;42.020;23.094;2023-10-09T05:26:11;97810.88;;;18.22;56.15
22755;BME280;11544;42.020;23.094;2023-10-09T05:28:58;97816.97;;;18.38;56.50
22755;BME280;11544;42.020;23.094;2023-10-09T05:31:25;97821.09;;;18.58;57.06
22755;BME280;11544;42.020;23.094;2023-10-09T05:34:10;97822.38;;;19.12;56.91
22755;BME280;11544;42.020;23.094;2023-10-09T05:36:46;97822.00;;;19.32;53.46
22755;BME280;11544;42.020;23.094;2023-10-09T05:39:14;97831.66;;;19.33;53.62
22755;BME280;11544;42.020;23.094;2023-10-09T05:42:04;97829.56;;;19.67;53.70
22755;BME280;11544;42.020;23.094;2023-10-09T05:44:36;97841.19;;;19.79;51.74
22755;BME280;11544;42.020;23.094;2023-10-09T05:47:22;97843.16;;;19.32;53.36
22755;BME280;11544;42.020;23.094;2023-10-09T05:50:00;97831.22;;;18.96;54.29
22755;BME280;11544;42.020;23.094;2023-10-09T05:52:36;97833.63;;;19.44;53.79
22755;BME280;11544;42.020;23.094;2023-10-09T05:55:07;97829.22;;;19.73;53.57
22755;BME280;11544;42.020;23.094;2023-10-09T05:57:52;97837.06;;;19.01;53.96
22755;BME280;11544;42.020;23.094;2023-10-09T06:00:37;97839.31;;;20.49;49.99
22755;BME280;11544;42.020;23.094;2023-10-09T06:03:23;97844.59;;;19.81;50.28
22755;BME280;11544;42.020;23.094;2023-10-09T06:05:54;97858.44;;;19.41;51.08
22755;BME280;11544;42.020;23.094;2023-10-09T06:08:25;97869.81;;;18.53;52.92
22755;BME280;11544;42.020;23.094;2023-10-09T06:11:09;97872.97;;;18.59;51.77
22755;BME280;11544;42.020;23.094;2023-10-09T06:14:00;97885.50;;;19.02;50.84
22755;BME280;11544;42.020;23.094;2023-10-09T06:16:31;97889.00;;;19.17;49.24
22755;BME280;11544;42.020;23.094;2023-10-09T06:19:27;97886.66;;;19.27;49.01
22755;BME280;11544;42.020;23.094;2023-10-09T06:21:59;97890.78;;;19.02;51.27
22755;BME280;11544;42.020;23.094;2023-10-09T06:24:44;97900.47;;;18.71;50.28
22755;BME280;11544;42.020;23.094;2023-10-09T06:27:21;97901.97;;;19.21;48.45
22755;BME280;11544;42.020;23.094;2023-10-09T06:29:58;97908.94;;;19.22;48.22
22755;BME280;11544;42.020;23.094;2023-10-09T06:32:43;97917.75;;;18.61;48.51
22755;BME280;11544;42.020;23.094;2023-10-09T06:35:33;97919.81;;;19.32;47.33
22755;BME280;11544;42.020;23.094;2023-10-09T06:38:02;97919.66;;;19.35;49.39
22755;BME280;11544;42.020;23.094;2023-10-09T06:40:39;97922.16;;;19.96;46.10
22755;BME280;11544;42.020;23.094;2023-10-09T06:43:19;97921.75;;;19.59;46.46
22755;BME280;11544;42.020;23.094;2023-10-09T06:45:50;97919.50;;;19.81;45.72
22755;BME280;11544;42.020;23.094;2023-10-09T06:48:35;97926.88;;;20.05;44.82
22755;BME280;11544;42.020;23.094;2023-10-09T06:51:10;97928.75;;;20.73;42.49
22755;BME280;11544;42.020;23.094;2023-10-09T06:53:52;97938.66;;;20.84;42.29
22755;BME280;11544;42.020;23.094;2023-10-09T06:56:24;97943.19;;;20.82;42.66
22755;BME280;11544;42.020;23.094;2023-10-09T06:58:54;97951.47;;;20.90;41.47
22755;BME280;11544;42.020;23.094;2023-10-09T07:01:21;97956.91;;;20.33;42.60
22755;BME280;11544;42.020;23.094;2023-10-09T07:03:56;97955.94;;;20.89;41.46
22755;BME280;11544;42.020;23.094;2023-10-09T07:06:42;97951.53;;;20.05;42.55
22755;BME280;11544;42.020;23.094;2023-10-09T07:09:09;97960.13;;;20.23;42.44
22755;BME280;11544;42.020;23.094;2023-10-09T07:11:41;97968.88;;;20.52;42.04
22755;BME280;11544;42.020;23.094;2023-10-09T07:17:06;97956.31;;;20.56;42.23
22755;BME280;11544;42.020;23.094;2023-10-09T07:19:44;97959.66;;;21.00;41.43
22755;BME280;11544;42.020;23.094;2023-10-09T07:22:14;97967.22;;;20.79;41.13
22755;BME280;11544;42.020;23.094;2023-10-09T07:24:52;97966.38;;;19.79;43.69
22755;BME280;11544;42.020;23.094;2023-10-09T07:27:39;97951.59;;;20.47;42.28
22755;BME280;11544;42.020;23.094;2023-10-09T07:30:14;97953.81;;;20.94;41.43
22755;BME280;11544;42.020;23.094;2023-10-09T07:33:01;97946.78;;;21.08;40.38
22755;BME280;11544;42.020;23.094;2023-10-09T07:35:47;97953.81;;;21.34;40.17
22755;BME280;11544;42.020;23.094;2023-10-09T07:38:19;97946.63;;;21.36;38.65
22755;BME280;11544;42.020;23.094;2023-10-09T07:40:47;97944.38;;;21.30;38.88
22755;BME280;11544;42.020;23.094;2023-10-09T07:43:46;97947.53;;;21.50;36.90
22755;BME280;11544;42.020;23.094;2023-10-09T07:46:18;97942.03;;;21.26;37.63
22755;BME280;11544;42.020;23.094;2023-10-09T07:49:19;97939.41;;;21.39;37.20
22755;BME280;11544;42.020;23.094;2023-10-09T07:51:52;97935.50;;;21.44;37.38
22755;BME280;11544;42.020;23.094;2023-10-09T07:54:25;97949.75;;;21.16;37.09
22755;BME280;11544;42.020;23.094;2023-10-09T07:57:03;97939.66;;;21.87;35.44
22755;BME280;11544;42.020;23.094;2023-10-09T07:59:43;97934.03;;;21.53;35.07
22755;BME280;11544;42.020;23.094;2023-10-09T08:02:30;97933.09;;;21.80;33.34
22755;BME280;11544;42.020;23.094;2023-10-09T08:05:01;97931.97;;;22.33;32.72
22755;BME280;11544;42.020;23.094;2023-10-09T08:07:46;97930.16;;;22.47;31.69
22755;BME280;11544;42.020;23.094;2023-10-09T08:10:39;97930.16;;;22.71;32.54
22755;BME280;11544;42.020;23.094;2023-10-09T08:13:24;97917.44;;;22.13;32.93
22755;BME280;11544;42.020;23.094;2023-10-09T08:16:10;97932.34;;;21.52;32.69
22755;BME280;11544;42.020;23.094;2023-10-09T08:18:44;97928.75;;;21.53;33.56
22755;BME280;11544;42.020;23.094;2023-10-09T08:21:11;97939.13;;;20.76;34.38
22755;BME280;11544;42.020;23.094;2023-10-09T08:23:38;97925.66;;;21.97;33.65
22755;BME280;11544;42.020;23.094;2023-10-09T08:26:19;97925.16;;;22.42;31.90
22755;BME280;11544;42.020;23.094;2023-10-09T08:29:13;97917.91;;;21.82;31.79
22755;BME280;11544;42.020;23.094;2023-10-09T08:31:46;97909.31;;;22.77;30.68
22755;BME280;11544;42.020;23.094;2023-10-09T08:34:13;97911.59;;;22.58;31.13
22755;BME280;11544;42.020;23.094;2023-10-09T08:36:54;97914.03;;;22.61;30.55
22755;BME280;11544;42.020;23.094;2023-10-09T08:39:22;97908.47;;;23.12;32.22
22755;BME280;11544;42.020;23.094;2023-10-09T08:41:53;97922.31;;;21.30;31.86
22755;BME280;11544;42.020;23.094;2023-10-09T08:44:25;97907.84;;;21.48;31.07
22755;BME280;11544;42.020;23.094;2023-10-09T08:46:56;97910.75;;;22.81;30.66
22755;BME280;11544;42.020;23.094;2023-10-09T08:49:25;97910.09;;;22.17;30.47
22755;BME280;11544;42.020;23.094;2023-10-09T08:51:53;97906.84;;;22.50;29.53
22755;BME280;11544;42.020;23.094;2023-10-09T08:54:20;97910.50;;;22.36;29.74
22755;BME280;11544;42.020;23.094;2023-10-09T08:56:47;97902.66;;;22.83;28.81
22755;BME280;11544;42.020;23.094;2023-10-09T08:59:20;97910.88;;;22.80;28.06
22755;BME280;11544;42.020;23.094;2023-10-09T09:01:48;97905.78;;;22.53;28.67
22755;BME280;11544;42.020;23.094;2023-10-09T09:04:38;97902.28;;;22.76;27.76
22755;BME280;11544;42.020;23.094;2023-10-09T09:07:31;97903.31;;;23.11;27.67
22755;BME280;11544;42.020;23.094;2023-10-09T09:10:00;97906.06;;;22.61;28.45
22755;BME280;11544;42.020;23.094;2023-10-09T09:12:48;97895.88;;;22.55;28.43
22755;BME280;11544;42.020;23.094;2023-10-09T09:15:28;97901.13;;;23.74;27.64
22755;BME280;11544;42.020;23.094;2023-10-09T09:18:08;97900.25;;;23.62;26.97
22755;BME280;11544;42.020;23.094;2023-10-09T09:20:44;97885.75;;;23.66;27.19
22755;BME280;11544;42.020;23.094;2023-10-09T09:23:15;97884.41;;;23.49;27.15
22755;BME280;11544;42.020;23.094;2023-10-09T09:25:44;97881.75;;;23.60;26.55
22755;BME280;11544;42.020;23.094;2023-10-09T09:28:12;97879.44;;;23.44;26.48
22755;BME280;11544;42.020;23.094;2023-10-09T09:30:39;97873.94;;;23.81;25.68
22755;BME280;11544;42.020;23.094;2023-10-09T09:33:23;97877.97;;;23.40;25.65
22755;BME280;11544;42.020;23.094;2023-10-09T09:38:31;97868.09;;;23.76;25.27
22755;BME280;11544;42.020;23.094;2023-10-09T09:41:17;97865.44;;;23.87;24.93
22755;BME280;11544;42.020;23.094;2023-10-09T09:43:55;97852.53;;;23.14;25.30
22755;BME280;11544;42.020;23.094;2023-10-09T09:46:31;97853.06;;;23.64;24.76
22755;BME280;11544;42.020;23.094;2023-10-09T09:49:05;97851.41;;;23.97;25.34
22755;BME280;11544;42.020;23.094;2023-10-09T09:51:34;97845.59;;;23.58;25.36
22755;BME280;11544;42.020;23.094;2023-10-09T09:54:01;97846.44;;;24.03;24.45
22755;BME280;11544;42.020;23.094;2023-10-09T09:56:30;97849.13;;;23.12;24.50
22755;BME280;11544;42.020;23.094;2023-10-09T09:59:02;97848.13;;;24.04;24.53
22755;BME280;11544;42.020;23.094;2023-10-09T10:01:30;97840.41;;;22.98;24.70
22755;BME280;11544;42.020;23.094;2023-10-09T10:04:07;97841.97;;;23.70;25.22
22755;BME280;11544;42.020;23.094;2023-10-09T10:06:43;97833.75;;;23.84;24.97
22755;BME280;11544;42.020;23.094;2023-10-09T10:09:37;97840.97;;;24.16;25.21
22755;BME280;11544;42.020;23.094;2023-10-09T10:12:08;97829.19;;;23.06;25.09
22755;BME280;11544;42.020;23.094;2023-10-09T10:14:54;97817.16;;;23.70;25.22
22755;BME280;11544;42.020;23.094;2023-10-09T10:20:27;97817.97;;;24.59;24.89
22755;BME280;11544;42.020;23.094;2023-10-09T10:23:17;97817.03;;;24.05;25.50
22755;BME280;11544;42.020;23.094;2023-10-09T10:25:52;97826.03;;;22.77;26.24
22755;BME280;11544;42.020;23.094;2023-10-09T10:28:27;97798.06;;;23.53;25.21
22755;BME280;11544;42.020;23.094;2023-10-09T10:31:09;97802.28;;;23.67;25.61
22755;BME280;11544;42.020;23.094;2023-10-09T10:34:03;97801.63;;;24.08;25.37
22755;BME280;11544;42.020;23.094;2023-10-09T10:36:34;97798.22;;;23.74;25.53
22755;BME280;11544;42.020;23.094;2023-10-09T10:39:07;97785.34;;;23.57;25.56
22755;BME280;11544;42.020;23.094;2023-10-09T10:41:39;97777.50;;;23.33;25.34
22755;BME280;11544;42.020;23.094;2023-10-09T10:44:31;97776.88;;;22.71;26.19
22755;BME280;11544;42.020;23.094;2023-10-09T10:47:06;97765.25;;;23.08;25.14
22755;BME280;11544;42.020;23.094;2023-10-09T10:49:51;97765.75;;;23.80;25.05
22755;BME280;11544;42.020;23.094;2023-10-09T10:52:22;97748.00;;;24.13;24.24
22755;BME280;11544;42.020;23.094;2023-10-09T10:55:12;97769.13;;;23.03;24.76
22755;BME280;11544;42.020;23.094;2023-10-09T10:57:58;97762.84;;;23.04;23.47
22755;BME280;11544;42.020;23.094;2023-10-09T11:00:31;97745.69;;;23.09;24.06
22755;BME280;11544;42.020;23.094;2023-10-09T11:03:20;97740.59;;;23.28;24.96
22755;BME280;11544;42.020;23.094;2023-10-09T11:06:01;97736.38;;;24.14;24.54
22755;BME280;11544;42.020;23.094;2023-10-09T11:08:45;97738.94;;;24.04;24.81
22755;BME280;11544;42.020;23.094;2023-10-09T11:11:22;97722.00;;;23.28;23.86
22755;BME280;11544;42.020;23.094;2023-10-09T11:13:49;97732.34;;;22.97;24.40
22755;BME280;11544;42.020;23.094;2023-10-09T11:16:22;97719.44;;;23.60;23.34
22755;BME280;11544;42.020;23.094;2023-10-09T11:19:01;97706.97;;;24.37;22.34
22755;BME280;11544;42.020;23.094;2023-10-09T11:21:39;97703.06;;;24.52;23.91
22755;BME280;11544;42.020;23.094;2023-10-09T11:24:10;97691.63;;;24.92;24.03
22755;BME280;11544;42.020;23.094;2023-10-09T11:26:55;97687.78;;;24.54;23.34
22755;BME280;11544;42.020;23.094;2023-10-09T11:29:23;97685.91;;;24.97;22.77
22755;BME280;11544;42.020;23.094;2023-10-09T11:34:28;97680.38;;;25.09;22.54
22755;BME280;11544;42.020;23.094;2023-10-09T11:37:00;97678.91;;;23.57;24.07
22755;BME280;11544;42.020;23.094;2023-10-09T11:39:32;97666.44;;;24.33;23.88
22755;BME280;11544;42.020;23.094;2023-10-09T11:42:19;97669.56;;;24.17;23.40
22755;BME280;11544;42.020;23.094;2023-10-09T11:45:23;97655.56;;;24.57;23.39
22755;BME280;11544;42.020;23.094;2023-10-09T11:48:16;97649.56;;;24.65;22.53
22755;BME280;11544;42.020;23.094;2023-10-09T11:50:52;97651.16;;;25.08;22.92
22755;BME280;11544;42.020;23.094;2023-10-09T11:53:22;97654.22;;;24.72;22.40
22755;BME280;11544;42.020;23.094;2023-10-09T11:55:49;97647.94;;;25.04;22.76
22755;BME280;11544;42.020;23.094;2023-10-09T11:58:19;97644.97;;;25.38;21.75
22755;BME280;11544;42.020;23.094;2023-10-09T12:00:58;97641.03;;;25.02;22.73
22755;BME280;11544;42.020;23.094;2023-10-09T12:03:32;97632.53;;;24.87;20.89
22755;BME280;11544;42.020;23.094;2023-10-09T12:06:02;97621.47;;;24.61;20.77
22755;BME280;11544;42.020;23.094;2023-10-09T12:08:39;97612.31;;;24.54;19.78
22755;BME280;11544;42.020;23.094;2023-10-09T12:11:09;97615.44;;;24.59;18.77
22755;BME280;11544;42.020;23.094;2023-10-09T12:13:37;97610.13;;;24.17;20.68
22755;BME280;11544;42.020;23.094;2023-10-09T12:16:05;97602.22;;;24.78;20.89
22755;BME280;11544;42.020;23.094;2023-10-09T12:18:38;97600.06;;;24.72;20.61
22755;BME280;11544;42.020;23.094;2023-10-09T12:21:06;97600.91;;;25.13;20.22
22755;BME280;11544;42.020;23.094;2023-10-09T12:23:33;97594.34;;;24.77;20.91
22755;BME280;11544;42.020;23.094;2023-10-09T12:26:04;97583.19;;;24.92;20.67
22755;BME280;11544;42.020;23.094;2023-10-09T12:28:31;97578.97;;;24.90;22.10
22755;BME280;11544;42.020;23.094;2023-10-09T12:31:01;97588.53;;;24.92;21.24
22755;BME280;11544;42.020;23.094;2023-10-09T12:33:28;97577.13;;;24.81;22.25
22755;BME280;11544;42.020;23.094;2023-10-09T12:35:57;97573.50;;;24.61;21.53
22755;BME280;11544;42.020;23.094;2023-10-09T12:38:28;97578.56;;;24.12;22.81
22755;BME280;11544;42.020;23.094;2023-10-09T12:41:05;97571.78;;;24.81;21.90
22755;BME280;11544;42.020;23.094;2023-10-09T12:43:53;97563.91;;;25.20;21.96
22755;BME280;11544;42.020;23.094;2023-10-09T12:46:21;97560.88;;;25.03;21.58
22755;BME280;11544;42.020;23.094;2023-10-09T12:48:53;97557.72;;;25.19;22.22
22755;BME280;11544;42.020;23.094;2023-10-09T12:51:24;97554.34;;;24.77;21.01
22755;BME280;11544;42.020;23.094;2023-10-09T12:54:00;97549.34;;;24.93;21.27
22755;BME280;11544;42.020;23.094;2023-10-09T12:56:28;97552.66;;;24.76;20.43
22755;BME280;11544;42.020;23.094;2023-10-09T12:59:05;97541.88;;;24.77;21.73
22755;BME280;11544;42.020;23.094;2023-10-09T13:01:34;97544.50;;;24.67;20.72
22755;BME280;11544;42.020;23.094;2023-10-09T13:04:13;97535.34;;;25.01;20.33
22755;BME280;11544;42.020;23.094;2023-10-09T13:06:44;97530.84;;;25.11;20.68
22755;BME280;11544;42.020;23.094;2023-10-09T13:09:17;97524.50;;;24.83;20.69
22755;BME280;11544;42.020;23.094;2023-10-09T13:12:02;97524.94;;;24.88;21.04
22755;BME280;11544;42.020;23.094;2023-10-09T13:14:32;97514.19;;;25.09;20.82
22755;BME280;11544;42.020;23.094;2023-10-09T13:17:01;97523.56;;;24.53;21.17
22755;BME280;11544;42.020;23.094;2023-10-09T13:19:36;97516.31;;;24.75;20.85
22755;BME280;11544;42.020;23.094;2023-10-09T13:22:03;97520.97;;;24.82;21.26
22755;BME280;11544;42.020;23.094;2023-10-09T13:24:40;97517.56;;;24.70;21.82
22755;BME280;11544;42.020;23.094;2023-10-09T13:27:07;97502.91;;;24.86;21.22
22755;BME280;11544;42.020;23.094;2023-10-09T13:29:39;97504.25;;;24.80;22.10
22755;BME280;11544;42.020;23.094;2023-10-09T13:32:09;97503.97;;;25.24;21.98
22755;BME280;11544;42.020;23.094;2023-10-09T13:34:43;97497.72;;;24.94;22.37
22755;BME280;11544;42.020;23.094;2023-10-09T13:37:13;97490.53;;;24.85;21.40
22755;BME280;11544;42.020;23.094;2023-10-09T13:39:41;97487.09;;;25.13;21.33
22755;BME280;11544;42.020;23.094;2023-10-09T13:42:20;97487.66;;;24.26;22.47
22755;BME280;11544;42.020;23.094;2023-10-09T13:44:52;97488.03;;;25.03;21.72
22755;BME280;11544;42.020;23.094;2023-10-09T13:47:22;97475.81;;;24.81;21.58
22755;BME280;11544;42.020;23.094;2023-10-09T13:49:55;97467.53;;;24.93;22.42
22755;BME280;11544;42.020;23.094;2023-10-09T13:52:24;97472.13;;;24.72;22.73